Terminal Aerodrome Forecast
Issued by NWS Quad Cities IA IL

Home | Current Version | Previous Version | Text Only | Print | Product List | Glossary On
Versions: 1 2 3 4 5 6 7 8 9 10 11 12 13 14 15 16 17 18 19
000
FTUS43 KDVN 301730
TAFDBQ
TAF
KDBQ 301730Z 3018/0118 25014G19KT P6SM OVC015
     FM302000 25014G20KT 5SM -RASN BR BKN008 OVC012
     FM010200 26013KT 4SM -SN SCT008 OVC015
     FM010600 27011KT P6SM OVC008=

USA.gov is the U.S. government's official web portal to all federal, state and local government web resources and services.